ěÝzenÝ letovÚho provozu ╚eskÚ republiky
OPMET data - Ceska Republika Aktualizace: 29.07.2021 11:00:31  UTC
SIGMET / AIRMET - NIL
Warning / Vystraha - NIL
AIREP - NIL
REG QNH
REGIONAL QNH FORECAST ISSUED 2021-07-29 08:43 AREA VALID FM/TL QNH/HPA/ : LKAA 290900/291200 1013 =
 
METAR / SPECI
METAR LKBC 291100Z AUTO 26015KT 9999 BKN060 23/12 Q1015=
METAR LKCV 291100Z 28014KT CAVOK 24/12 Q1014 NOSIG RMK BLU BLU=
METAR LKKB 291100Z 24012KT CAVOK 24/11 Q1014 NOSIG RMK BLU BLU=
METAR LKKU NIL
METAR LKKV 291100Z 26011KT 230V310 9999 SCT044 20/10 Q1015 RMK REG QNH 1013=
METAR LKLN 291100Z AUTO 26008KT 200V300 9999 BKN049 22/12 Q1015=
METAR LKMT 291100Z 23011KT 200V270 9999 FEW043 26/16 Q1014 NOSIG RMK REG QNH 1013=
METAR LKNA 291100Z 27011KT CAVOK 23/12 Q1016 NOSIG RMK BLU BLU=
METAR LKPD 291100Z 26018G26KT CAVOK 25/10 Q1014 NOSIG RMK BLU BLU=
METAR LKPJ 291100Z AUTO 26009KT 230V290 9999 FEW054/// 27/12 Q1014=
METAR LKPR 291100Z 23014KT CAVOK 24/11 Q1014 NOSIG RMK REG QNH 1013=
METAR LKTB 291100Z 26006KT 200V320 9999 BKN049 26/13 Q1014 NOSIG RMK REG QNH 1013=
METAR LKVO 291100Z 25013KT CAVOK 24/10 Q1014=
TAF
TAF LKBC NIL
TAF LKCV 290500Z 2906/3006 15006KT CAVOK      BECMG 2907/2909 26012KT      TEMPO 2909/2915 26018KT      BECMG 2920/2922 VRB02KT=
TAF AMD LKKB 290500Z 2909/3006 24015KT 9999 SCT035      TEMPO 2909/2918 26022KT      BECMG 2912/2914 CAVOK      BECMG 2918/2920 23005KT=
TAF LKKU NIL
TAF LKKV 290500Z 2906/3012 24006KT CAVOK      TEMPO 2908/2919 27010G22KT      TEMPO 3003/3008 VRB02KT=
TAF LKLN NIL
TAF LKMT 290500Z 2906/3012 20006KT CAVOK      TEMPO 2910/2917 22016KT      TEMPO 3008/3012 21018KT=
TAF LKNA 290500Z 2906/3006 30006KT CAVOK      TEMPO 2912/2918 9999 SCT035      BECMG 2918/2920 36004KT=
TAF LKPD 290500Z 2906/3006 27006KT CAVOK      TEMPO 2908/2910 BKN040      BECMG 2909/2911 28012KT      BECMG 2917/2919 25006KT      BECMG 2921/2923 VRB02KT=
TAF LKPJ NIL
TAF LKPR 290500Z 2906/3012 22008KT CAVOK      TEMPO 2910/2917 24018KT=
TAF LKTB 290500Z 2906/3012 29006KT CAVOK      BECMG 2907/2909 18008KT      TEMPO 2919/3006 VRB02KT      TEMPO 3001/3007 9999 BKN035=
TAF LKVO NIL